Time;durP1;ratioP1;P1;durP2;ratioP2;P2;SDS_P1;SDS_P2;PMS_P1;PMS_P2;Temp;Humidity;BMP_temperature;BMP_pressure;BME280_temperature;BME280_humidity;BME280_pressure;Samples;Min_cycle;Max_cycle;Signal;HPM_P1;HPM_P2
2022/06/05 00:00:46;;;;;;;21.38;5.30;;;;;;;;;;5046917;28;20086;-60
2022/06/05 00:03:13;;;;;;;22.45;5.15;;;;;;;;;;5046436;28;20037;-60
2022/06/05 00:05:46;;;;;;;21.38;5.38;;;;;;;;;;5046248;28;20132;-60
2022/06/05 00:08:21;;;;;;;16.65;5.15;;;;;;;;;;5044948;28;20052;-60
2022/06/05 00:10:58;;;;;;;39.75;6.47;;;;;;;;;;5049633;28;20069;-60
2022/06/05 00:13:43;;;;;;;29.50;5.90;;;;;;;;;;5048105;28;20065;-60
2022/06/05 00:16:12;;;;;;;17.13;5.38;;;;;;;;;;5047083;28;20102;-60
2022/06/05 00:18:39;;;;;;;7.07;4.07;;;;;;;;;;5045337;28;20486;-60
2022/06/05 00:21:06;;;;;;;19.27;5.28;;;;;;;;;;5046838;28;20040;-60
2022/06/05 00:23:32;;;;;;;23.63;5.10;;;;;;;;;;5046481;28;20061;-60
2022/06/05 00:26:06;;;;;;;31.95;5.68;;;;;;;;;;5051592;28;20083;-60
2022/06/05 00:28:35;;;;;;;21.00;5.00;;;;;;;;;;5054767;28;20049;-61
2022/06/05 00:31:21;;;;;;;22.08;4.70;;;;;;;;;;5050035;28;20041;-60
2022/06/05 00:33:47;;;;;;;12.43;4.65;;;;;;;;;;5050654;28;20102;-60
2022/06/05 00:36:17;;;;;;;16.02;4.55;;;;;;;;;;5050766;28;20116;-60
2022/06/05 00:38:46;;;;;;;12.93;4.53;;;;;;;;;;5050500;28;20045;-60
2022/06/05 00:41:31;;;;;;;17.73;4.45;;;;;;;;;;5050790;28;20116;-60
2022/06/05 00:44:00;;;;;;;32.95;5.97;;;;;;;;;;5051741;28;20524;-59
2022/06/05 00:46:26;;;;;;;15.25;4.57;;;;;;;;;;5054140;28;20036;-60
2022/06/05 00:48:53;;;;;;;13.93;4.32;;;;;;;;;;5049073;28;20037;-60
2022/06/05 00:51:20;;;;;;;15.25;4.63;;;;;;;;;;5050435;28;20045;-60
2022/06/05 00:53:47;;;;;;;26.27;5.00;;;;;;;;;;5036185;28;20409;-60
2022/06/05 00:56:13;;;;;;;27.10;4.60;;;;;;;;;;5049513;28;20164;-60
2022/06/05 00:58:41;;;;;;;21.35;5.07;;;;;;;;;;5053771;28;20037;-60
2022/06/05 01:01:08;;;;;;;31.80;5.72;;;;;;;;;;5052165;28;20462;-60
2022/06/05 01:03:35;;;;;;;18.65;5.03;;;;;;;;;;5049391;28;20044;-60
2022/06/05 01:06:02;;;;;;;19.90;4.93;;;;;;;;;;5047993;28;20045;-60
2022/06/05 01:08:29;;;;;;;20.65;4.93;;;;;;;;;;5049388;28;20048;-60
2022/06/05 01:10:58;;;;;;;76.82;9.60;;;;;;;;;;5051656;28;20127;-60
2022/06/05 01:13:43;;;;;;;39.67;6.70;;;;;;;;;;5052660;28;20068;-60
2022/06/05 01:16:19;;;;;;;21.85;5.32;;;;;;;;;;5050151;28;20055;-60
2022/06/05 01:18:55;;;;;;;15.43;5.57;;;;;;;;;;5049176;28;20131;-60
2022/06/05 01:21:40;;;;;;;22.40;5.88;;;;;;;;;;5047887;28;20400;-60
2022/06/05 01:24:16;;;;;;;15.80;5.40;;;;;;;;;;5048748;28;20124;-60
2022/06/05 01:26:42;;;;;;;13.88;4.90;;;;;;;;;;5048883;28;20116;-60
2022/06/05 01:29:18;;;;;;;21.88;5.70;;;;;;;;;;5049836;28;20556;-60
2022/06/05 01:31:49;;;;;;;28.90;5.90;;;;;;;;;;5050337;28;20037;-60
2022/06/05 01:34:23;;;;;;;16.73;5.05;;;;;;;;;;5053298;28;20049;-60
2022/06/05 01:37:02;;;;;;;18.15;5.38;;;;;;;;;;5049186;28;20049;-60
2022/06/05 01:39:31;;;;;;;17.80;4.47;;;;;;;;;;5048628;28;20451;-60
2022/06/05 01:42:01;;;;;;;22.30;6.40;;;;;;;;;;5047596;28;20520;-60
2022/06/05 01:44:31;;;;;;;24.23;5.53;;;;;;;;;;5047685;28;20065;-60
2022/06/05 01:46:59;;;;;;;43.05;6.57;;;;;;;;;;5049737;28;20548;-60
2022/06/05 01:49:47;;;;;;;24.20;6.05;;;;;;;;;;5051080;28;20566;-60
2022/06/05 01:52:16;;;;;;;21.83;5.55;;;;;;;;;;5083234;28;20071;-60
2022/06/05 01:54:46;;;;;;;17.20;5.28;;;;;;;;;;5048653;28;20382;-60
2022/06/05 01:57:14;;;;;;;16.05;4.78;;;;;;;;;;5049025;28;20051;-59
2022/06/05 01:59:44;;;;;;;21.45;5.05;;;;;;;;;;5049007;28;20477;-60
2022/06/05 02:02:12;;;;;;;16.00;5.25;;;;;;;;;;5048032;28;20120;-59
2022/06/05 02:04:42;;;;;;;29.13;5.90;;;;;;;;;;5049581;28;20108;-60
2022/06/05 02:07:08;;;;;;;17.13;4.95;;;;;;;;;;5047591;28;20127;-60
2022/06/05 02:09:37;;;;;;;20.30;5.10;;;;;;;;;;5048072;28;20037;-60
2022/06/05 02:12:04;;;;;;;23.75;4.97;;;;;;;;;;5047119;28;20135;-60
2022/06/05 02:14:31;;;;;;;17.08;5.15;;;;;;;;;;5048310;28;20121;-60
2022/06/05 02:16:59;;;;;;;24.17;4.65;;;;;;;;;;5050650;28;20099;-60
2022/06/05 02:19:25;;;;;;;14.38;4.18;;;;;;;;;;5051706;28;20040;-60
2022/06/05 02:21:54;;;;;;;39.97;6.30;;;;;;;;;;5052184;28;20049;-60
2022/06/05 02:24:21;;;;;;;12.63;4.25;;;;;;;;;;5046614;28;20148;-60
2022/06/05 02:26:47;;;;;;;24.05;5.00;;;;;;;;;;5046730;28;20068;-60
2022/06/05 02:29:15;;;;;;;15.77;4.65;;;;;;;;;;5046927;28;20120;-60
2022/06/05 02:31:41;;;;;;;14.93;4.70;;;;;;;;;;5052265;28;20461;-59
2022/06/05 02:34:22;;;;;;;9.35;4.43;;;;;;;;;;5048844;28;20044;-60
2022/06/05 02:36:51;;;;;;;18.38;5.28;;;;;;;;;;5046275;28;20052;-60
2022/06/05 02:39:30;;;;;;;14.60;4.88;;;;;;;;;;5047547;28;20121;-60
2022/06/05 02:41:59;;;;;;;24.13;5.50;;;;;;;;;;5047806;28;20128;-60
2022/06/05 02:44:32;;;;;;;22.05;4.95;;;;;;;;;;5047816;28;20045;-60
2022/06/05 02:46:59;;;;;;;;;;;;;;;;;;5049729;28;20045;-60
2022/06/05 02:49:31;;;;;;;29.67;6.03;;;;;;;;;;5050990;28;19963;-60
2022/06/05 02:52:01;;;;;;;27.00;5.75;;;;;;;;;;5048044;28;20044;-60
2022/06/05 02:54:28;;;;;;;16.42;5.20;;;;;;;;;;5047201;28;20135;-60
2022/06/05 02:56:55;;;;;;;22.90;5.30;;;;;;;;;;5047301;28;20124;-60
2022/06/05 02:59:25;;;;;;;15.70;4.60;;;;;;;;;;5047503;28;20037;-60
2022/06/05 03:04:37;;;;;;;17.77;4.93;;;;;;;;;;5052426;28;20486;-59
2022/06/05 03:07:04;;;;;;;45.40;7.07;;;;;;;;;;5047198;28;20045;-59
2022/06/05 03:09:30;;;;;;;19.33;5.55;;;;;;;;;;5047542;28;20040;-60
2022/06/05 03:11:57;;;;;;;18.85;5.07;;;;;;;;;;5046608;28;20440;-60
2022/06/05 03:14:24;;;;;;;11.10;4.78;;;;;;;;;;5047692;28;20048;-59
2022/06/05 03:16:52;;;;;;;31.88;6.22;;;;;;;;;;5049653;28;20045;-60
2022/06/05 03:19:19;;;;;;;12.38;5.40;;;;;;;;;;5049203;28;20052;-60
2022/06/05 03:21:45;;;;;;;17.17;5.40;;;;;;;;;;5046901;28;20044;-59
2022/06/05 03:24:13;;;;;;;19.58;5.57;;;;;;;;;;5046903;28;20036;-61
2022/06/05 03:26:40;;;;;;;130.85;11.30;;;;;;;;;;5046638;28;20083;-59
2022/06/05 03:29:07;;;;;;;45.63;7.65;;;;;;;;;;5047886;28;20103;-60
2022/06/05 03:31:35;;;;;;;22.67;6.43;;;;;;;;;;5050588;28;20072;-60
2022/06/05 03:34:01;;;;;;;17.77;6.60;;;;;;;;;;5045840;28;20497;-60
2022/06/05 03:36:28;;;;;;;14.35;6.38;;;;;;;;;;5046656;28;20123;-59
2022/06/05 03:38:54;;;;;;;20.90;5.82;;;;;;;;;;5046482;28;20135;-59
2022/06/05 03:41:21;;;;;;;25.75;6.13;;;;;;;;;;5047400;28;20118;-59
2022/06/05 03:43:48;;;;;;;19.67;5.65;;;;;;;;;;5049906;28;20144;-59
2022/06/05 03:46:15;;;;;;;13.32;6.05;;;;;;;;;;5048520;28;20501;-59
2022/06/05 03:48:42;;;;;;;18.23;5.90;;;;;;;;;;5028648;28;20094;-61
2022/06/05 03:51:10;;;;;;;16.40;6.07;;;;;;;;;;5046654;28;20214;-60
2022/06/05 03:53:36;;;;;;;43.70;7.68;;;;;;;;;;5046554;28;20359;-60
2022/06/05 03:56:14;;;;;;;24.40;6.25;;;;;;;;;;5013966;28;20056;-60
2022/06/05 03:58:41;;;;;;;21.02;5.97;;;;;;;;;;5047214;28;20489;-60
2022/06/05 04:01:08;;;;;;;17.33;5.60;;;;;;;;;;5046610;28;20041;-61
2022/06/05 04:03:35;;;;;;;25.52;5.70;;;;;;;;;;5046278;28;20465;-61
2022/06/05 04:06:06;;;;;;;14.82;4.90;;;;;;;;;;5046551;28;20045;-61
2022/06/05 04:08:34;;;;;;;27.15;5.88;;;;;;;;;;5046854;28;20576;-61
2022/06/05 04:11:08;;;;;;;42.13;7.30;;;;;;;;;;5048699;28;20394;-61
2022/06/05 04:13:34;;;;;;;22.80;5.72;;;;;;;;;;5050735;28;20452;-62
2022/06/05 04:16:01;;;;;;;19.98;5.75;;;;;;;;;;5045605;28;20497;-61
2022/06/05 04:18:27;;;;;;;21.20;6.38;;;;;;;;;;5044733;28;20029;-61
2022/06/05 04:20:54;;;;;;;27.35;7.03;;;;;;;;;;5046127;28;20057;-61
2022/06/05 04:23:20;;;;;;;25.13;7.28;;;;;;;;;;5046352;28;20037;-61
2022/06/05 04:25:47;;;;;;;35.50;6.32;;;;;;;;;;5050109;28;20080;-61
2022/06/05 04:28:13;;;;;;;18.83;6.10;;;;;;;;;;5047174;28;20417;-61
2022/06/05 04:30:40;;;;;;;9.43;4.93;;;;;;;;;;5047020;28;20077;-61
2022/06/05 04:33:07;;;;;;;18.20;5.97;;;;;;;;;;5046413;28;20049;-61
2022/06/05 04:35:34;;;;;;;38.63;7.40;;;;;;;;;;5045233;28;20045;-61
2022/06/05 04:38:00;;;;;;;37.28;6.80;;;;;;;;;;5047540;28;20121;-61
2022/06/05 04:40:27;;;;;;;13.63;5.18;;;;;;;;;;5049618;28;20029;-61
2022/06/05 04:42:54;;;;;;;12.50;5.10;;;;;;;;;;5046422;28;20094;-61
2022/06/05 04:45:20;;;;;;;14.20;5.57;;;;;;;;;;5046307;28;20051;-62
2022/06/05 04:47:47;;;;;;;26.30;6.07;;;;;;;;;;5046417;28;20080;-61
2022/06/05 04:50:13;;;;;;;18.38;5.43;;;;;;;;;;5045392;28;20120;-61
2022/06/05 04:52:40;;;;;;;15.95;4.97;;;;;;;;;;5083165;28;20250;-62
2022/06/05 04:55:07;;;;;;;19.17;5.28;;;;;;;;;;5045675;28;20073;-62
2022/06/05 04:57:34;;;;;;;21.58;5.63;;;;;;;;;;5044297;28;20052;-61
2022/06/05 05:00:00;;;;;;;25.70;5.93;;;;;;;;;;5046456;28;20041;-61
2022/06/05 05:02:28;;;;;;;37.75;6.43;;;;;;;;;;5045882;28;20408;-60
2022/06/05 05:04:56;;;;;;;31.80;5.88;;;;;;;;;;5048363;28;20048;-60
2022/06/05 05:07:23;;;;;;;18.50;5.93;;;;;;;;;;5048365;28;20044;-60
2022/06/05 05:09:49;;;;;;;14.50;5.07;;;;;;;;;;5046970;28;20508;-60
2022/06/05 05:12:16;;;;;;;15.77;5.45;;;;;;;;;;5051086;28;20591;-61
2022/06/05 05:14:42;;;;;;;16.40;5.30;;;;;;;;;;5050771;28;20064;-61
2022/06/05 05:17:09;;;;;;;29.88;5.57;;;;;;;;;;5050649;28;20041;-60
2022/06/05 05:19:36;;;;;;;24.00;5.72;;;;;;;;;;5053440;28;20405;-61
2022/06/05 05:22:02;;;;;;;12.88;4.55;;;;;;;;;;5049739;28;20435;-61
2022/06/05 05:24:29;;;;;;;33.13;6.22;;;;;;;;;;5049422;28;20045;-61
2022/06/05 05:26:55;;;;;;;18.40;4.97;;;;;;;;;;5050158;28;20040;-61
2022/06/05 05:29:22;;;;;;;17.48;4.53;;;;;;;;;;5049943;28;20087;-61
2022/06/05 05:31:50;;;;;;;46.45;6.75;;;;;;;;;;5050782;28;20064;-61
2022/06/05 05:34:16;;;;;;;17.65;5.07;;;;;;;;;;5050301;28;20075;-61
2022/06/05 05:36:43;;;;;;;31.58;5.55;;;;;;;;;;5034520;28;20565;-62
2022/06/05 05:42:06;;;;;;;17.90;4.80;;;;;;;;;;5046992;28;20049;-62
2022/06/05 05:44:34;;;;;;;24.70;5.18;;;;;;;;;;5047834;28;20032;-62
2022/06/05 05:47:00;;;;;;;88.07;9.82;;;;;;;;;;5033408;28;20124;-62
2022/06/05 05:49:27;;;;;;;13.57;4.32;;;;;;;;;;5052089;28;20052;-60
2022/06/05 05:51:53;;;;;;;10.75;3.78;;;;;;;;;;5048103;28;20048;-58
2022/06/05 05:54:20;;;;;;;13.52;4.22;;;;;;;;;;5049321;28;20120;-58
2022/06/05 05:56:46;;;;;;;15.70;3.67;;;;;;;;;;5048505;28;20476;-63
2022/06/05 05:59:13;;;;;;;33.13;5.18;;;;;;;;;;5049194;28;20136;-64
2022/06/05 06:01:40;;;;;;;34.85;5.40;;;;;;;;;;5051468;28;20124;-63
2022/06/05 06:04:06;;;;;;;32.85;5.15;;;;;;;;;;5046854;28;20470;-64
2022/06/05 06:06:34;;;;;;;24.02;4.85;;;;;;;;;;5043799;28;20103;-64
2022/06/05 06:09:01;;;;;;;25.13;4.90;;;;;;;;;;5038789;28;20041;-63
2022/06/05 06:11:28;;;;;;;30.23;5.07;;;;;;;;;;5047320;28;20133;-63
2022/06/05 06:13:55;;;;;;;32.03;5.38;;;;;;;;;;5051206;28;20080;-63
2022/06/05 06:16:21;;;;;;;26.17;4.65;;;;;;;;;;5051210;28;20438;-63
2022/06/05 06:18:48;;;;;;;11.52;3.60;;;;;;;;;;5047775;28;20052;-64
2022/06/05 06:21:14;;;;;;;13.30;4.22;;;;;;;;;;5048256;28;20404;-63
2022/06/05 06:23:41;;;;;;;16.67;3.95;;;;;;;;;;5048584;28;20068;-64
2022/06/05 06:26:08;;;;;;;23.02;4.80;;;;;;;;;;5050034;28;20382;-64
2022/06/05 06:28:35;;;;;;;14.68;3.97;;;;;;;;;;5052428;28;20559;-64
2022/06/05 06:31:08;;;;;;;9.25;3.33;;;;;;;;;;5048160;28;20091;-64
2022/06/05 06:33:36;;;;;;;12.20;3.28;;;;;;;;;;5047922;28;20033;-64
2022/06/05 06:36:04;;;;;;;11.75;3.60;;;;;;;;;;5048085;28;20041;-64
2022/06/05 06:38:31;;;;;;;33.30;5.47;;;;;;;;;;5047882;28;20486;-64
2022/06/05 06:40:59;;;;;;;37.08;5.90;;;;;;;;;;5050542;28;20528;-64
2022/06/05 06:43:26;;;;;;;9.07;2.90;;;;;;;;;;5051519;28;20056;-65
2022/06/05 06:45:52;;;;;;;18.85;3.63;;;;;;;;;;5047556;28;20033;-64
2022/06/05 06:48:19;;;;;;;8.10;3.25;;;;;;;;;;5047659;28;20044;-65
2022/06/05 06:50:45;;;;;;;35.30;4.97;;;;;;;;;;5046053;28;20075;-64
2022/06/05 06:53:12;;;;;;;25.55;4.07;;;;;;;;;;5048520;28;20045;-64
2022/06/05 06:55:38;;;;;;;23.63;3.65;;;;;;;;;;5052120;28;20029;-64
2022/06/05 06:58:05;;;;;;;13.85;3.45;;;;;;;;;;5047662;28;20571;-64
2022/06/05 07:00:32;;;;;;;103.18;8.32;;;;;;;;;;5047058;28;20076;-64
2022/06/05 07:02:58;;;;;;;22.58;4.32;;;;;;;;;;5047149;28;20087;-65
2022/06/05 07:05:25;;;;;;;16.35;3.30;;;;;;;;;;5047255;28;20037;-64
2022/06/05 07:07:52;;;;;;;30.90;4.57;;;;;;;;;;5051502;28;20123;-63
2022/06/05 07:10:18;;;;;;;10.30;2.97;;;;;;;;;;5047694;28;20112;-63
2022/06/05 07:12:47;;;;;;;157.93;12.82;;;;;;;;;;5047356;28;20037;-60
2022/06/05 07:15:14;;;;;;;29.85;4.00;;;;;;;;;;5047231;28;20108;-60
2022/06/05 07:17:41;;;;;;;35.22;5.00;;;;;;;;;;5046973;28;20175;-59
2022/06/05 07:20:07;;;;;;;21.73;3.53;;;;;;;;;;5048910;28;20159;-61
2022/06/05 07:22:34;;;;;;;7.18;2.78;;;;;;;;;;5051332;28;20119;-61
2022/06/05 07:25:01;;;;;;;19.85;3.40;;;;;;;;;;5047216;28;20083;-59
2022/06/05 07:27:28;;;;;;;14.02;3.25;;;;;;;;;;5046970;28;20037;-59
2022/06/05 07:29:54;;;;;;;9.63;3.05;;;;;;;;;;5045817;28;20421;-59
2022/06/05 07:32:21;;;;;;;49.72;5.63;;;;;;;;;;5046149;28;20073;-60
2022/06/05 07:34:48;;;;;;;22.30;3.60;;;;;;;;;;5050444;28;20497;-64
2022/06/05 07:37:15;;;;;;;24.00;3.90;;;;;;;;;;5046571;28;20123;-60
2022/06/05 07:39:42;;;;;;;16.90;3.47;;;;;;;;;;5046622;28;20540;-60
2022/06/05 07:42:09;;;;;;;45.50;5.30;;;;;;;;;;5046537;28;20052;-60
2022/06/05 07:44:36;;;;;;;20.20;3.65;;;;;;;;;;5046782;28;20041;-60
2022/06/05 07:47:04;;;;;;;21.48;3.83;;;;;;;;;;5048640;28;20481;-59
2022/06/05 07:49:30;;;;;;;11.02;3.08;;;;;;;;;;5048198;28;20048;-59
2022/06/05 07:54:46;;;;;;;23.10;3.88;;;;;;;;;;5047030;28;20064;-60
2022/06/05 07:57:13;;;;;;;15.10;3.20;;;;;;;;;;5046158;28;20076;-60
2022/06/05 07:59:41;;;;;;;12.93;2.95;;;;;;;;;;5046825;28;20045;-61
2022/06/05 08:02:11;;;;;;;25.88;4.25;;;;;;;;;;5047966;28;20133;-59
2022/06/05 08:04:39;;;;;;;17.60;3.50;;;;;;;;;;5050382;28;20076;-59
2022/06/05 08:07:06;;;;;;;24.00;3.95;;;;;;;;;;5048622;28;20128;-60
2022/06/05 08:09:33;;;;;;;19.20;3.55;;;;;;;;;;5046600;28;20037;-60
2022/06/05 08:12:00;;;;;;;35.53;4.82;;;;;;;;;;5045935;28;20041;-59
2022/06/05 08:14:27;;;;;;;22.48;4.15;;;;;;;;;;5046214;28;20069;-58
2022/06/05 08:16:55;;;;;;;26.80;4.38;;;;;;;;;;5049288;28;20044;-58
2022/06/05 08:19:22;;;;;;;11.82;3.30;;;;;;;;;;5046023;28;20068;-58
2022/06/05 08:21:51;;;;;;;31.42;4.22;;;;;;;;;;5045770;28;20127;-58
2022/06/05 08:24:17;;;;;;;11.13;3.33;;;;;;;;;;5046457;28;20037;-62
2022/06/05 08:26:44;;;;;;;19.85;3.67;;;;;;;;;;5045758;28;20049;-62
2022/06/05 08:29:11;;;;;;;31.55;4.63;;;;;;;;;;5047358;28;20057;-59
2022/06/05 08:31:38;;;;;;;15.02;3.40;;;;;;;;;;5050069;28;20123;-60
2022/06/05 08:34:05;;;;;;;19.70;3.40;;;;;;;;;;5045609;28;20057;-63
2022/06/05 08:36:33;;;;;;;14.88;3.45;;;;;;;;;;5045975;28;20516;-59
2022/06/05 08:42:04;;;;;;;26.38;4.13;;;;;;;;;;5045652;28;20076;-59
2022/06/05 08:44:34;;;;;;;31.45;4.53;;;;;;;;;;5046266;28;20509;-59
2022/06/05 08:47:18;;;;;;;47.55;5.90;;;;;;;;;;5051160;28;20041;-57
2022/06/05 08:50:04;;;;;;;29.95;4.78;;;;;;;;;;5050208;28;20041;-58
2022/06/05 08:52:50;;;;;;;18.00;3.47;;;;;;;;;;5052741;28;20123;-58
2022/06/05 08:55:16;;;;;;;23.85;4.30;;;;;;;;;;5049402;28;20120;-57
2022/06/05 08:57:45;;;;;;;28.50;4.50;;;;;;;;;;5049330;28;20059;-57
2022/06/05 09:00:19;;;;;;;28.80;4.38;;;;;;;;;;5050777;28;20108;-57
2022/06/05 09:03:00;;;;;;;30.65;4.50;;;;;;;;;;5048430;28;20049;-57
2022/06/05 09:05:30;;;;;;;19.58;3.55;;;;;;;;;;5051400;28;20044;-57
2022/06/05 09:07:59;;;;;;;25.40;3.92;;;;;;;;;;5048479;28;20147;-58
2022/06/05 09:10:26;;;;;;;268.38;18.60;;;;;;;;;;5051726;28;20099;-58
2022/06/05 09:13:01;;;;;;;21.60;4.22;;;;;;;;;;5049650;28;20044;-57
2022/06/05 09:15:27;;;;;;;25.42;3.92;;;;;;;;;;5048873;28;20090;-57
2022/06/05 09:18:08;;;;;;;86.13;6.93;;;;;;;;;;5049776;28;20079;-57
2022/06/05 09:20:55;;;;;;;16.23;3.83;;;;;;;;;;5050111;28;20485;-57
2022/06/05 09:23:37;;;;;;;25.55;4.80;;;;;;;;;;5050800;28;20037;-57
2022/06/05 09:26:04;;;;;;;;;;;;;;;;;;5049910;28;20048;-58
2022/06/05 09:28:33;;;;;;;23.92;4.35;;;;;;;;;;5051678;28;19943;-58
2022/06/05 09:31:18;;;;;;;31.92;4.60;;;;;;;;;;5048711;28;20076;-57
2022/06/05 09:33:45;;;;;;;26.85;4.25;;;;;;;;;;5048202;28;20064;-57
2022/06/05 09:36:15;;;;;;;39.33;5.43;;;;;;;;;;5050206;28;20444;-58
2022/06/05 09:38:45;;;;;;;89.30;8.80;;;;;;;;;;5044934;28;20037;-57
2022/06/05 09:41:11;;;;;;;30.88;4.47;;;;;;;;;;5050507;28;20124;-57
2022/06/05 09:43:49;;;;;;;14.55;3.45;;;;;;;;;;5053150;28;20048;-57
2022/06/05 09:46:25;;;;;;;20.58;4.45;;;;;;;;;;5050071;28;20138;-56
2022/06/05 09:48:53;;;;;;;28.00;4.78;;;;;;;;;;5049991;28;20045;-57
2022/06/05 09:51:20;;;;;;;35.65;4.57;;;;;;;;;;5047402;28;20037;-57
2022/06/05 09:53:54;;;;;;;23.52;4.13;;;;;;;;;;5049706;28;20041;-56
2022/06/05 09:59:32;;;;;;;31.77;5.03;;;;;;;;;;5047847;28;20037;-57
2022/06/05 10:02:01;;;;;;;44.22;5.72;;;;;;;;;;5048091;28;20132;-56
2022/06/05 10:04:29;;;;;;;44.30;5.85;;;;;;;;;;5048946;28;20098;-57
2022/06/05 10:07:23;;;;;;;27.30;3.70;;;;;;;;;;5048633;28;20041;-57
2022/06/05 10:09:49;;;;;;;17.90;3.38;;;;;;;;;;5049382;28;20072;-57
2022/06/05 10:12:29;;;;;;;24.92;4.07;;;;;;;;;;5049056;28;20513;-57
2022/06/05 10:14:55;;;;;;;17.58;3.63;;;;;;;;;;5049508;28;20041;-58
2022/06/05 10:17:31;;;;;;;56.50;6.32;;;;;;;;;;5048781;28;20044;-57
2022/06/05 10:20:12;;;;;;;28.90;3.80;;;;;;;;;;5051427;28;20413;-58
2022/06/05 10:22:39;;;;;;;29.73;5.07;;;;;;;;;;5051409;28;20040;-59
2022/06/05 10:25:24;;;;;;;27.65;4.65;;;;;;;;;;5048221;28;20119;-57
2022/06/05 10:27:53;;;;;;;22.27;3.40;;;;;;;;;;5048004;28;20048;-57
2022/06/05 10:30:20;;;;;;;19.08;3.00;;;;;;;;;;5046670;28;20114;-58
2022/06/05 10:32:52;;;;;;;38.50;4.43;;;;;;;;;;5048742;28;20108;-57
2022/06/05 10:35:48;;;;;;;28.13;3.78;;;;;;;;;;5044931;28;20045;-57
2022/06/05 10:38:21;;;;;;;15.82;2.75;;;;;;;;;;5037433;28;20169;-58
2022/06/05 10:40:48;;;;;;;;;;;;;;;;;;5051330;28;20092;-56
2022/06/05 10:43:41;;;;;;;53.55;4.97;;;;;;;;;;5048620;28;19964;-56
2022/06/05 10:46:20;;;;;;;21.40;3.40;;;;;;;;;;5045897;28;20072;-57
2022/06/05 10:48:57;;;;;;;22.48;3.63;;;;;;;;;;5044023;28;20040;-56
2022/06/05 10:51:32;;;;;;;21.90;3.28;;;;;;;;;;5046194;28;20063;-57
2022/06/05 10:54:13;;;;;;;36.30;3.67;;;;;;;;;;5047595;28;20040;-59
2022/06/05 10:56:47;;;;;;;288.40;22.80;;;;;;;;;;5048869;28;20079;-61
2022/06/05 10:59:14;;;;;;;26.50;3.50;;;;;;;;;;5049174;28;20805;-60
2022/06/05 11:02:04;;;;;;;11.30;2.50;;;;;;;;;;5052414;28;20400;-60
2022/06/05 11:04:34;;;;;;;22.05;3.08;;;;;;;;;;5046544;28;20126;-61
2022/06/05 11:07:18;;;;;;;22.02;3.47;;;;;;;;;;5045796;28;20061;-58
2022/06/05 11:09:57;;;;;;;28.20;3.50;;;;;;;;;;5048787;28;20053;-66
2022/06/05 11:15:18;;;;;;;;;;;;;;;;;;5049206;28;20033;-68
2022/06/05 11:18:08;;;;;;;26.90;3.55;;;;;;;;;;5048021;28;20000;-65
2022/06/05 11:20:35;;;;;;;76.40;6.63;;;;;;;;;;5046836;28;20057;-67
2022/06/05 11:23:03;;;;;;;58.78;5.32;;;;;;;;;;5050062;28;20409;-68
2022/06/05 11:25:49;;;;;;;24.85;3.10;;;;;;;;;;5050650;28;20061;-66
2022/06/05 11:28:15;;;;;;;29.27;3.78;;;;;;;;;;5048297;28;20539;-64
2022/06/05 11:30:42;;;;;;;21.02;3.45;;;;;;;;;;5047927;28;20512;-65
2022/06/05 11:33:17;;;;;;;56.58;5.32;;;;;;;;;;5051193;28;20121;-66
2022/06/05 11:35:46;;;;;;;13.50;2.60;;;;;;;;;;5048537;28;20079;-71
2022/06/05 11:38:29;;;;;;;31.23;3.90;;;;;;;;;;5050480;28;20080;-65
2022/06/05 11:41:14;;;;;;;118.63;9.43;;;;;;;;;;5052304;28;20072;-65
2022/06/05 11:43:41;;;;;;;51.72;5.32;;;;;;;;;;5052371;28;20157;-65
2022/06/05 11:46:33;;;;;;;13.38;2.88;;;;;;;;;;5049730;28;20123;-66
2022/06/05 11:49:07;;;;;;;52.40;5.00;;;;;;;;;;5049355;28;20049;-66
2022/06/05 11:51:37;;;;;;;355.17;23.40;;;;;;;;;;5046489;28;20309;-65
2022/06/05 11:54:15;;;;;;;27.20;3.75;;;;;;;;;;5051905;28;20117;-66
2022/06/05 13:49:55;;;;;;;81.22;7.35;;;;;;;;;;5858859;23;20055;-67
2022/06/05 13:52:27;;;;;;;38.42;4.80;;;;;;;;;;4902922;29;20131;-58
2022/06/05 13:54:54;;;;;;;185.80;11.27;;;;;;;;;;4907995;29;20052;-61
2022/06/05 13:57:34;;;;;;;57.03;5.22;;;;;;;;;;4908839;29;20309;-62
2022/06/05 14:00:04;;;;;;;49.65;5.45;;;;;;;;;;4909810;29;20048;-69
2022/06/05 14:02:39;;;;;;;55.40;5.75;;;;;;;;;;4911373;29;20134;-67
2022/06/05 14:05:15;;;;;;;18.63;2.95;;;;;;;;;;4909574;29;20052;-65
2022/06/05 14:07:58;;;;;;;30.77;4.07;;;;;;;;;;4918510;29;20044;-65
2022/06/05 14:10:26;;;;;;;16.23;2.88;;;;;;;;;;4902125;29;20072;-64
2022/06/05 14:13:13;;;;;;;220.40;16.23;;;;;;;;;;4903144;29;20052;-65
2022/06/05 14:15:48;;;;;;;56.72;5.18;;;;;;;;;;4906340;29;20048;-64
2022/06/05 14:18:40;;;;;;;15.25;2.78;;;;;;;;;;4908975;29;20052;-66
2022/06/05 14:21:20;;;;;;;22.42;3.70;;;;;;;;;;4904923;29;20064;-62
2022/06/05 14:24:12;;;;;;;20.15;3.33;;;;;;;;;;4899915;29;20492;-59
2022/06/05 14:26:42;;;;;;;22.48;3.10;;;;;;;;;;4902814;29;20072;-60
2022/06/05 14:29:14;;;;;;;21.35;3.17;;;;;;;;;;4906602;29;20072;-74
2022/06/05 14:31:41;;;;;;;49.00;5.13;;;;;;;;;;4911411;29;20457;-82
2022/06/05 14:34:15;;;;;;;48.97;4.60;;;;;;;;;;4883972;29;20104;-78
2022/06/05 14:36:44;;;;;;;36.47;4.57;;;;;;;;;;4917318;29;20139;-72
2022/06/05 14:39:21;;;;;;;52.25;5.00;;;;;;;;;;4911048;29;20048;-67
2022/06/05 14:41:59;;;;;;;103.25;8.45;;;;;;;;;;4901888;29;20037;-74
2022/06/05 14:44:31;;;;;;;25.73;3.15;;;;;;;;;;4900780;29;20047;-78
2022/06/05 14:47:01;;;;;;;144.68;9.52;;;;;;;;;;4901107;29;20084;-69
2022/06/05 14:49:40;;;;;;;109.88;10.15;;;;;;;;;;4901233;29;20101;-68
2022/06/05 14:52:25;;;;;;;27.83;4.30;;;;;;;;;;4901286;29;20092;-67
2022/06/05 14:58:02;;;;;;;188.20;13.80;;;;;;;;;;4915783;29;20436;-68
2022/06/05 15:00:34;;;;;;;10.57;2.35;;;;;;;;;;4901175;29;20048;-67
2022/06/05 15:03:21;;;;;;;39.72;5.30;;;;;;;;;;4899716;29;20047;-68
2022/06/05 15:05:52;;;;;;;34.88;3.47;;;;;;;;;;4900732;29;20040;-67
2022/06/05 15:08:29;;;;;;;38.03;4.97;;;;;;;;;;4899744;29;20557;-68
2022/06/05 15:11:02;;;;;;;57.75;5.47;;;;;;;;;;4900515;29;20040;-67
2022/06/05 15:13:29;;;;;;;21.60;3.50;;;;;;;;;;4905864;29;20047;-67
2022/06/05 15:16:02;;;;;;;31.70;3.50;;;;;;;;;;4900297;29;20063;-67
2022/06/05 15:18:28;;;;;;;;;;;;;;;;;;4916351;29;20123;-67
2022/06/05 15:21:13;;;;;;;62.78;5.50;;;;;;;;;;4914700;29;19923;-66
2022/06/05 15:23:44;;;;;;;15.43;2.85;;;;;;;;;;4898833;29;20040;-68
2022/06/05 15:26:30;;;;;;;25.33;3.28;;;;;;;;;;4910583;29;20047;-73
2022/06/05 15:29:15;;;;;;;30.92;4.10;;;;;;;;;;4904302;29;20486;-73
2022/06/05 15:31:42;;;;;;;45.85;5.20;;;;;;;;;;4899436;29;20047;-72
2022/06/05 15:34:19;;;;;;;59.33;5.30;;;;;;;;;;4900572;29;20445;-73
2022/06/05 15:36:57;;;;;;;32.75;3.85;;;;;;;;;;4898784;29;20041;-74
2022/06/05 15:39:33;;;;;;;25.25;3.50;;;;;;;;;;4897452;29;20068;-75
2022/06/05 15:42:06;;;;;;;30.13;3.67;;;;;;;;;;4899996;29;20057;-75
2022/06/05 15:44:45;;;;;;;23.52;3.53;;;;;;;;;;4899768;29;20047;-77
2022/06/05 15:47:25;;;;;;;74.00;7.55;;;;;;;;;;4899580;29;20281;-77
2022/06/05 15:50:11;;;;;;;28.77;3.85;;;;;;;;;;4902912;29;20056;-77
2022/06/05 15:52:46;;;;;;;51.75;4.95;;;;;;;;;;4919305;29;20048;-75
2022/06/05 15:55:27;;;;;;;97.90;8.05;;;;;;;;;;4919126;29;20043;-73
2022/06/05 15:58:21;;;;;;;43.30;5.25;;;;;;;;;;4917522;29;20892;-73
2022/06/05 16:01:04;;;;;;;38.75;5.05;;;;;;;;;;4918485;29;20568;-78
2022/06/05 16:03:34;;;;;;;38.75;4.25;;;;;;;;;;4918956;29;20051;-76
2022/06/05 16:06:02;;;;;;;28.20;4.28;;;;;;;;;;4917117;29;20052;-75
2022/06/05 16:08:45;;;;;;;37.95;5.35;;;;;;;;;;4921905;29;20074;-75
2022/06/05 16:11:19;;;;;;;14.10;3.00;;;;;;;;;;4928424;29;20139;-68
2022/06/05 16:13:52;;;;;;;34.40;4.07;;;;;;;;;;4923774;29;20070;-68
2022/06/05 16:16:24;;;;;;;226.70;15.90;;;;;;;;;;4921202;29;20119;-68
2022/06/05 16:19:04;;;;;;;20.45;4.38;;;;;;;;;;4934160;29;20500;-68
2022/06/05 16:21:53;;;;;;;21.30;3.90;;;;;;;;;;4919021;29;20075;-68
2022/06/05 16:24:24;;;;;;;124.95;9.15;;;;;;;;;;4916177;29;20068;-69
2022/06/05 16:26:50;;;;;;;88.50;6.35;;;;;;;;;;4917533;29;20496;-69
2022/06/05 16:29:18;;;;;;;120.75;9.98;;;;;;;;;;4918402;29;20152;-68
2022/06/05 16:31:49;;;;;;;31.73;4.13;;;;;;;;;;4918488;29;20079;-69
2022/06/05 16:37:57;;;;;;;34.75;5.03;;;;;;;;;;4874784;29;20077;-69
2022/06/05 16:40:24;;;;;;;88.95;7.57;;;;;;;;;;4874869;29;20148;-70
2022/06/05 16:42:59;;;;;;;85.50;7.95;;;;;;;;;;4874320;29;20098;-65
2022/06/05 16:45:28;;;;;;;15.40;3.63;;;;;;;;;;4875519;29;20148;-69
2022/06/05 16:47:59;;;;;;;18.77;4.07;;;;;;;;;;4873453;29;20083;-68
2022/06/05 16:50:32;;;;;;;51.88;5.85;;;;;;;;;;4863820;29;20057;-63
2022/06/05 16:53:14;;;;;;;36.22;4.68;;;;;;;;;;4853254;29;20045;-61
2022/06/05 16:56:05;;;;;;;78.43;8.55;;;;;;;;;;4853100;29;20046;-62
2022/06/05 16:58:32;;;;;;;140.35;10.20;;;;;;;;;;4846605;29;20058;-61
2022/06/05 17:01:06;;;;;;;21.35;3.72;;;;;;;;;;4853622;29;20486;-63
2022/06/05 17:03:37;;;;;;;24.77;4.25;;;;;;;;;;4856699;29;20072;-64
2022/06/05 17:06:22;;;;;;;41.40;4.38;;;;;;;;;;4857690;29;20061;-68
2022/06/05 17:08:50;;;;;;;9.02;3.15;;;;;;;;;;4859156;29;20065;-64
2022/06/05 17:11:25;;;;;;;17.38;3.55;;;;;;;;;;4856585;29;20069;-65